createdAt,value
2017-06-24T00:01:17.340Z,21.50
2017-06-24T00:03:44.865Z,20.08
2017-06-24T00:06:12.600Z,20.05
2017-06-24T00:08:40.249Z,22.10
2017-06-24T00:11:08.085Z,20.20
2017-06-24T00:13:35.746Z,16.60
2017-06-24T00:16:03.272Z,19.00
2017-06-24T00:18:31.149Z,21.45
2017-06-24T00:20:58.929Z,19.65
2017-06-24T00:23:26.464Z,20.25
2017-06-24T00:25:53.977Z,18.95
2017-06-24T00:28:21.554Z,19.27
2017-06-24T00:30:49.972Z,18.98
2017-06-24T00:33:17.525Z,21.15
2017-06-24T00:35:45.297Z,18.52
2017-06-24T00:38:12.872Z,20.88
2017-06-24T00:40:41.369Z,19.00
2017-06-24T00:43:09.196Z,18.12
2017-06-24T00:45:37.062Z,20.58
2017-06-24T00:48:04.577Z,19.75
2017-06-24T00:50:33.573Z,20.55
2017-06-24T00:53:01.809Z,20.40
2017-06-24T00:55:29.315Z,20.25
2017-06-24T00:57:56.857Z,19.52
2017-06-24T01:00:24.357Z,19.85
2017-06-24T01:02:52.063Z,17.45
2017-06-24T01:05:20.393Z,20.12
2017-06-24T01:07:47.956Z,20.65
2017-06-24T01:10:15.460Z,20.05
2017-06-24T01:12:43.855Z,19.00
2017-06-24T01:15:11.385Z,17.77
2017-06-24T01:17:39.661Z,16.73
2017-06-24T01:20:08.192Z,19.42
2017-06-24T01:22:35.701Z,18.12
2017-06-24T01:25:04.011Z,16.55
2017-06-24T01:27:31.546Z,19.23
2017-06-24T01:29:59.107Z,19.83
2017-06-24T01:32:26.857Z,19.07
2017-06-24T01:34:56.002Z,19.45
2017-06-24T01:37:23.642Z,16.98
2017-06-24T01:39:51.566Z,16.98
2017-06-24T01:42:19.983Z,16.83
2017-06-24T01:44:47.495Z,17.25
2017-06-24T01:47:15.286Z,16.27
2017-06-24T01:49:43.185Z,19.42
2017-06-24T01:52:11.309Z,21.30
2017-06-24T01:54:39.217Z,18.17
2017-06-24T02:10:01.586Z,21.75
2017-06-24T02:12:29.288Z,17.25
2017-06-24T02:14:56.823Z,18.10
2017-06-24T02:17:24.325Z,16.55
2017-06-24T02:19:51.932Z,18.58
2017-06-24T02:22:19.617Z,14.68
2017-06-24T02:24:47.124Z,16.05
2017-06-24T02:27:15.444Z,18.37
2017-06-24T02:29:43.185Z,18.83
2017-06-24T02:32:10.977Z,20.08
2017-06-24T02:34:38.530Z,20.98
2017-06-24T02:37:06.051Z,33.03
2017-06-24T02:39:33.649Z,20.33
2017-06-24T02:42:01.197Z,19.90
2017-06-24T02:44:29.085Z,21.30
2017-06-24T02:46:56.592Z,21.15
2017-06-24T02:49:24.134Z,17.80
2017-06-24T02:51:52.969Z,16.92
2017-06-24T02:54:20.837Z,17.15
2017-06-24T02:56:48.345Z,21.02
2017-06-24T02:59:16.153Z,22.58
2017-06-24T03:01:43.917Z,18.25
2017-06-24T03:04:11.442Z,18.12
2017-06-24T03:06:38.969Z,18.92
2017-06-24T03:09:06.472Z,18.00
2017-06-24T03:11:34.001Z,19.00
2017-06-24T03:14:01.521Z,19.00
2017-06-24T03:16:29.145Z,16.83
2017-06-24T03:18:56.678Z,17.33
2017-06-24T03:21:24.189Z,17.98
2017-06-24T03:23:51.718Z,20.37
2017-06-24T03:26:19.344Z,16.42
2017-06-24T03:28:47.969Z,16.33
2017-06-24T03:31:15.529Z,15.68
2017-06-24T03:33:43.466Z,15.82
2017-06-24T03:36:11.033Z,14.82
2017-06-24T03:38:38.537Z,16.70
2017-06-24T03:41:06.164Z,15.95
2017-06-24T03:43:33.670Z,16.83
2017-06-24T03:46:02.065Z,14.95
2017-06-24T03:48:29.574Z,18.98
2017-06-24T03:50:57.113Z,16.23
2017-06-24T03:53:24.873Z,20.20
2017-06-24T03:55:52.844Z,17.83
2017-06-24T03:58:20.569Z,16.05
2017-06-24T04:00:48.082Z,15.93
2017-06-24T04:03:15.654Z,17.55
2017-06-24T04:05:43.157Z,17.67
2017-06-24T04:08:10.696Z,16.83
2017-06-24T04:10:38.328Z,18.00
2017-06-24T04:13:06.654Z,15.00
2017-06-24T04:15:34.265Z,14.00
2017-06-24T04:18:02.577Z,13.50
2017-06-24T04:20:30.101Z,12.43
2017-06-24T04:22:58.740Z,15.93
2017-06-24T04:25:26.432Z,11.75
2017-06-24T04:27:53.933Z,10.98
2017-06-24T04:30:21.462Z,10.35
2017-06-24T04:32:48.961Z,15.18
2017-06-24T04:35:16.484Z,10.80
2017-06-24T04:37:44.109Z,11.50
2017-06-24T04:40:11.609Z,11.70
2017-06-24T04:42:39.132Z,10.43
2017-06-24T04:45:07.405Z,9.13
2017-06-24T04:47:34.949Z,10.80
2017-06-24T04:50:02.587Z,10.75
2017-06-24T04:52:30.354Z,18.03
2017-06-24T04:54:57.873Z,8.27
2017-06-24T04:57:25.441Z,9.57
2017-06-24T04:59:53.285Z,9.27
2017-06-24T05:02:21.091Z,10.88
2017-06-24T05:04:48.874Z,11.07
2017-06-24T05:07:16.540Z,8.23
2017-06-24T05:09:44.073Z,8.85
2017-06-24T05:12:11.935Z,8.52
2017-06-24T05:14:39.705Z,9.15
2017-06-24T05:17:07.557Z,8.35
2017-06-24T05:19:35.840Z,8.38
2017-06-24T05:22:05.062Z,12.13
2017-06-24T05:24:33.908Z,8.02
2017-06-24T05:27:02.775Z,7.82
2017-06-24T05:29:30.569Z,6.80
2017-06-24T05:31:59.458Z,11.35
2017-06-24T05:34:28.349Z,6.10
2017-06-24T05:36:55.940Z,10.53
2017-06-24T05:39:23.690Z,6.60
2017-06-24T05:41:51.189Z,7.63
2017-06-24T05:44:18.709Z,7.47
2017-06-24T05:46:46.208Z,7.93
2017-06-24T05:49:15.030Z,5.67
2017-06-24T05:51:42.573Z,6.13
2017-06-24T05:54:10.080Z,6.13
2017-06-24T05:56:38.369Z,6.40
2017-06-24T05:59:06.097Z,10.63
2017-06-24T06:01:33.697Z,6.60
2017-06-24T06:04:01.204Z,6.93
2017-06-24T06:06:28.737Z,8.50
2017-06-24T06:08:56.229Z,5.63
2017-06-24T06:11:23.748Z,5.73
2017-06-24T06:13:51.245Z,6.03
2017-06-24T06:16:18.748Z,8.13
2017-06-24T06:18:46.464Z,5.50
2017-06-24T06:21:13.971Z,7.37
2017-06-24T06:23:41.586Z,6.10
2017-06-24T06:26:10.077Z,6.50
2017-06-24T06:28:38.575Z,6.20
2017-06-24T06:31:06.361Z,6.90
2017-06-24T06:33:33.897Z,8.83
2017-06-24T06:36:01.402Z,6.03
2017-06-24T06:38:29.245Z,8.63
2017-06-24T06:40:57.105Z,6.77
2017-06-24T06:43:24.836Z,5.40
2017-06-24T06:45:52.373Z,5.67
2017-06-24T06:48:20.640Z,6.20
2017-06-24T06:50:49.088Z,5.67
2017-06-24T06:53:16.862Z,5.33
2017-06-24T06:55:44.464Z,5.80
2017-06-24T06:58:12.257Z,5.40
2017-06-24T07:00:40.017Z,7.70
2017-06-24T07:03:07.781Z,8.40
2017-06-24T07:05:35.515Z,8.63
2017-06-24T07:08:03.042Z,5.27
2017-06-24T07:10:31.305Z,6.23
2017-06-24T07:12:58.987Z,12.13
2017-06-24T07:15:27.253Z,7.33
2017-06-24T07:17:55.549Z,6.70
2017-06-24T07:20:23.057Z,8.87
2017-06-24T07:22:50.552Z,4.50
2017-06-24T07:25:18.083Z,4.67
2017-06-24T07:27:45.825Z,9.33
2017-06-24T07:30:13.347Z,9.60
2017-06-24T07:32:40.841Z,4.93
2017-06-24T07:35:08.689Z,8.03
2017-06-24T07:37:36.453Z,5.90
2017-06-24T07:40:03.994Z,11.20
2017-06-24T07:42:31.771Z,4.30
2017-06-24T07:44:59.268Z,5.93
2017-06-24T07:47:26.785Z,4.00
2017-06-24T07:49:54.548Z,4.70
2017-06-24T07:52:22.069Z,6.30
2017-06-24T07:54:49.565Z,5.73
2017-06-24T07:57:17.086Z,8.40
2017-06-24T07:59:44.584Z,4.47
2017-06-24T08:02:12.553Z,7.37
2017-06-24T08:04:40.053Z,6.10
2017-06-24T08:07:08.312Z,7.57
2017-06-24T08:09:36.848Z,5.50
2017-06-24T08:12:04.352Z,6.03
2017-06-24T08:14:32.640Z,4.87
2017-06-24T08:17:00.148Z,6.33
2017-06-24T08:19:27.665Z,4.70
2017-06-24T08:21:55.162Z,6.80
2017-06-24T08:24:22.694Z,5.37
2017-06-24T08:26:50.195Z,4.90
2017-06-24T08:29:17.694Z,4.27
2017-06-24T08:31:45.224Z,3.63
2017-06-24T08:34:13.042Z,4.23
2017-06-24T08:36:40.566Z,8.57
2017-06-24T08:39:08.357Z,7.97
2017-06-24T08:41:35.941Z,4.33
2017-06-24T08:44:03.464Z,4.27
2017-06-24T08:46:30.984Z,4.40
2017-06-24T08:48:59.245Z,5.37
2017-06-24T08:51:27.533Z,4.50
2017-06-24T08:53:55.814Z,7.20
2017-06-24T08:56:23.508Z,4.10
2017-06-24T08:58:51.025Z,6.57
2017-06-24T09:01:19.288Z,6.10
2017-06-24T09:03:47.577Z,4.87
2017-06-24T09:06:15.302Z,4.27
2017-06-24T09:08:43.608Z,4.43
2017-06-24T09:11:11.873Z,4.80
2017-06-24T09:13:40.373Z,5.50
2017-06-24T09:16:08.169Z,5.73
2017-06-24T09:18:35.718Z,4.33
2017-06-24T09:21:03.277Z,7.43
2017-06-24T09:23:30.773Z,5.60
2017-06-24T09:25:58.297Z,5.13
2017-06-24T09:28:25.798Z,5.20
2017-06-24T09:30:54.055Z,6.00
2017-06-24T09:33:21.549Z,5.30
2017-06-24T09:35:49.076Z,4.00
2017-06-24T09:38:17.445Z,5.63
2017-06-24T09:40:45.276Z,4.23
2017-06-24T09:43:12.842Z,5.00
2017-06-24T09:45:40.354Z,6.25
2017-06-24T09:48:07.886Z,5.35
2017-06-24T09:50:36.311Z,4.22
2017-06-24T09:53:03.837Z,4.30
2017-06-24T09:55:32.113Z,6.15
2017-06-24T09:57:59.662Z,7.45
2017-06-24T10:00:28.065Z,6.97
2017-06-24T10:02:55.600Z,6.40
2017-06-24T10:05:24.121Z,5.15
2017-06-24T10:07:51.627Z,4.45
2017-06-24T10:10:20.271Z,5.57
2017-06-24T10:12:47.777Z,6.57
2017-06-24T10:15:15.844Z,5.62
2017-06-24T10:17:43.681Z,5.18
2017-06-24T10:20:11.212Z,6.12
2017-06-24T10:22:38.718Z,4.85
2017-06-24T10:25:06.984Z,5.50
2017-06-24T10:27:34.529Z,5.95
2017-06-24T10:30:02.030Z,5.18
2017-06-24T10:32:29.821Z,5.55
2017-06-24T10:34:57.321Z,4.95
2017-06-24T10:37:25.608Z,5.57
2017-06-24T10:39:53.108Z,5.03
2017-06-24T10:42:20.636Z,5.37
2017-06-24T10:44:48.217Z,4.95
2017-06-24T10:47:16.086Z,4.15
2017-06-24T10:49:43.610Z,3.45
2017-06-24T10:52:11.217Z,3.70
2017-06-24T10:54:38.822Z,4.55
2017-06-24T10:57:06.622Z,5.30
2017-06-24T10:59:34.227Z,3.25
2017-06-24T11:02:02.505Z,3.95
2017-06-24T11:04:30.045Z,5.35
2017-06-24T11:06:58.317Z,4.45
2017-06-24T11:09:25.825Z,4.15
2017-06-24T11:11:53.369Z,4.10
2017-06-24T11:14:20.872Z,4.65
2017-06-24T11:16:48.716Z,3.62
2017-06-24T11:19:16.222Z,3.67
2017-06-24T11:21:43.749Z,7.87
2017-06-24T11:24:11.252Z,6.82
2017-06-24T11:26:38.785Z,5.93
2017-06-24T11:29:07.057Z,6.75
2017-06-24T11:31:34.558Z,3.80
2017-06-24T11:34:02.082Z,4.65
2017-06-24T11:36:29.794Z,3.72
2017-06-24T11:38:57.346Z,4.30
2017-06-24T11:41:24.865Z,4.32
2017-06-24T11:43:52.585Z,3.97
2017-06-24T11:46:20.140Z,3.97
2017-06-24T11:48:48.105Z,3.40
2017-06-24T11:51:15.641Z,4.60
2017-06-24T11:53:43.144Z,4.97
2017-06-24T11:56:11.501Z,4.65
2017-06-24T11:58:39.026Z,3.33
2017-06-24T12:01:06.558Z,3.80
2017-06-24T12:03:34.061Z,5.25
2017-06-24T12:06:01.925Z,4.12
2017-06-24T12:08:29.681Z,3.60
2017-06-24T12:10:57.211Z,3.25
2017-06-24T12:13:24.723Z,4.62
2017-06-24T12:15:52.288Z,2.62
2017-06-24T12:18:20.577Z,3.70
2017-06-24T12:20:48.079Z,3.80
2017-06-24T12:23:15.602Z,3.15
2017-06-24T12:25:43.105Z,3.78
2017-06-24T12:28:10.629Z,3.40
2017-06-24T12:30:45.773Z,3.12
2017-06-24T12:33:13.308Z,4.62
2017-06-24T12:35:40.993Z,3.70
2017-06-24T12:38:08.496Z,7.97
2017-06-24T12:40:36.786Z,3.00
2017-06-24T12:43:04.289Z,3.03
2017-06-24T12:45:31.813Z,3.92
2017-06-24T12:47:59.329Z,3.47
2017-06-24T12:50:26.858Z,3.92
2017-06-24T12:52:54.650Z,4.62
2017-06-24T12:55:22.264Z,3.17
2017-06-24T12:57:49.790Z,3.85
2017-06-24T13:00:17.525Z,3.03
2017-06-24T13:02:45.464Z,3.70
2017-06-24T13:05:13.324Z,3.80
2017-06-24T13:07:41.189Z,5.25
2017-06-24T13:10:08.953Z,4.30
2017-06-24T13:12:36.466Z,4.50
2017-06-24T13:15:03.989Z,4.12
2017-06-24T13:17:31.831Z,4.30
2017-06-24T13:19:59.696Z,4.00
2017-06-24T13:22:27.196Z,5.07
2017-06-24T13:24:55.728Z,4.30
2017-06-24T13:27:23.426Z,6.07
2017-06-24T13:29:50.968Z,3.42
2017-06-24T13:32:18.472Z,7.43
2017-06-24T13:34:46.000Z,5.20
2017-06-24T13:37:14.342Z,3.70
2017-06-24T13:39:42.964Z,6.47
2017-06-24T13:42:10.789Z,5.05
2017-06-24T13:44:38.646Z,4.35
2017-06-24T13:47:06.516Z,4.05
2017-06-24T13:49:34.274Z,3.80
2017-06-24T13:52:01.776Z,4.03
2017-06-24T13:54:29.592Z,4.30
2017-06-24T13:56:57.261Z,3.83
2017-06-24T13:59:24.864Z,4.40
2017-06-24T14:01:53.257Z,4.75
2017-06-24T14:04:20.789Z,4.30
2017-06-24T14:06:48.611Z,4.07
2017-06-24T14:09:16.121Z,4.60
2017-06-24T14:11:44.133Z,5.30
2017-06-24T14:14:11.642Z,5.32
2017-06-24T14:16:40.046Z,7.68
2017-06-24T14:19:07.557Z,4.45
2017-06-24T14:21:35.089Z,4.50
2017-06-24T14:24:02.599Z,4.53
2017-06-24T14:26:30.253Z,5.12
2017-06-24T14:28:57.785Z,4.55
2017-06-24T14:31:25.617Z,4.50
2017-06-24T14:33:53.153Z,3.30
2017-06-24T14:36:20.676Z,3.80
2017-06-24T14:38:49.214Z,4.20
2017-06-24T14:41:16.917Z,5.50
2017-06-24T14:43:44.429Z,4.40
2017-06-24T14:46:11.955Z,4.47
2017-06-24T14:48:39.624Z,3.45
2017-06-24T14:51:07.152Z,5.20
2017-06-24T14:53:34.817Z,4.12
2017-06-24T14:56:02.366Z,3.80
2017-06-24T14:58:30.636Z,6.55
2017-06-24T15:00:58.912Z,4.07
2017-06-24T15:03:27.208Z,4.37
2017-06-24T15:05:55.516Z,4.40
2017-06-24T15:08:23.044Z,7.32
2017-06-24T15:10:51.521Z,4.47
2017-06-24T15:13:19.049Z,3.60
2017-06-24T15:15:46.670Z,4.90
2017-06-24T15:18:14.311Z,3.20
2017-06-24T15:20:41.839Z,4.35
2017-06-24T15:23:09.352Z,4.32
2017-06-24T15:25:37.200Z,6.22
2017-06-24T15:28:04.726Z,3.90
2017-06-24T15:30:32.378Z,3.90
2017-06-24T15:33:00.181Z,3.30
2017-06-24T15:35:27.945Z,3.87
2017-06-24T15:37:55.741Z,3.40
2017-06-24T15:40:23.245Z,6.85
2017-06-24T15:42:50.850Z,3.60
2017-06-24T15:45:18.366Z,3.70
2017-06-24T15:47:45.897Z,4.50
2017-06-24T15:50:14.810Z,4.45
2017-06-24T15:52:42.588Z,5.90
2017-06-24T15:55:10.347Z,2.90
2017-06-24T15:57:37.861Z,3.95
2017-06-24T16:00:05.393Z,4.93
2017-06-24T16:02:32.921Z,3.73
2017-06-24T16:05:00.471Z,2.80
2017-06-24T16:07:28.144Z,4.20
2017-06-24T16:09:55.670Z,4.10
2017-06-24T16:12:23.173Z,3.28
2017-06-24T16:14:50.734Z,4.97
2017-06-24T16:17:18.242Z,2.75
2017-06-24T16:19:45.747Z,4.62
2017-06-24T16:22:13.278Z,3.05
2017-06-24T16:24:40.781Z,2.78
2017-06-24T16:27:09.068Z,3.08
2017-06-24T16:29:36.569Z,2.90
2017-06-24T16:32:04.155Z,3.30
2017-06-24T16:34:31.656Z,3.25
2017-06-24T16:36:59.186Z,4.60
2017-06-24T16:39:27.525Z,2.90
2017-06-24T16:41:55.039Z,4.80
2017-06-24T16:44:22.825Z,3.30
2017-06-24T16:46:50.325Z,2.90
2017-06-24T16:49:18.867Z,3.22
2017-06-24T16:51:46.665Z,5.10
2017-06-24T16:54:14.370Z,2.90
2017-06-24T16:56:41.953Z,3.00
2017-06-24T16:59:09.481Z,3.50
2017-06-24T17:01:36.989Z,3.17
2017-06-24T17:04:04.513Z,3.42
2017-06-24T17:06:32.380Z,6.00
2017-06-24T17:08:59.993Z,3.85
2017-06-24T17:11:28.357Z,3.47
2017-06-24T17:13:55.976Z,3.45
2017-06-24T17:16:25.739Z,4.57
2017-06-24T17:18:53.738Z,3.53
2017-06-24T17:21:21.308Z,4.07
2017-06-24T17:23:48.999Z,4.53
2017-06-24T17:26:16.828Z,3.90
2017-06-24T17:28:44.797Z,6.70
2017-06-24T17:31:12.561Z,4.22
2017-06-24T17:33:40.081Z,3.62
2017-06-24T17:36:07.578Z,8.50
2017-06-24T17:38:35.102Z,4.03
2017-06-24T17:41:02.617Z,5.47
2017-06-24T17:43:30.141Z,3.72
2017-06-24T17:45:57.649Z,2.92
2017-06-24T17:48:26.254Z,3.53
2017-06-24T17:50:54.044Z,3.28
2017-06-24T17:53:22.020Z,2.50
2017-06-24T17:55:49.546Z,3.60
2017-06-24T17:58:17.066Z,3.10
2017-06-24T18:00:45.378Z,3.83
2017-06-24T18:03:12.960Z,3.40
2017-06-24T18:05:40.481Z,5.55
2017-06-24T18:08:08.031Z,2.85
2017-06-24T18:10:35.976Z,3.50
2017-06-24T18:13:04.249Z,3.85
2017-06-24T18:15:31.834Z,4.30
2017-06-24T18:17:59.360Z,2.80
2017-06-24T18:20:27.038Z,5.47
2017-06-24T18:22:55.324Z,2.70
2017-06-24T18:25:22.825Z,2.83
2017-06-24T18:27:50.360Z,3.08
2017-06-24T18:30:18.133Z,3.62
2017-06-24T18:32:46.675Z,2.35
2017-06-24T18:35:14.181Z,2.30
2017-06-24T18:37:41.690Z,2.75
2017-06-24T18:40:09.217Z,3.40
2017-06-24T18:42:36.845Z,3.05
2017-06-24T18:45:04.369Z,3.03
2017-06-24T18:47:31.987Z,2.85
2017-06-24T18:49:59.513Z,2.90
2017-06-24T18:52:27.367Z,9.63
2017-06-24T18:54:55.451Z,2.40
2017-06-24T18:57:22.953Z,3.25
2017-06-24T18:59:52.797Z,2.90
2017-06-24T19:02:21.021Z,2.80
2017-06-24T19:04:49.983Z,2.53
2017-06-24T19:07:18.181Z,2.42
2017-06-24T19:09:46.820Z,5.05
2017-06-24T19:12:14.540Z,2.15
2017-06-24T19:14:42.490Z,2.58
2017-06-24T19:17:11.378Z,5.28
2017-06-24T19:19:40.111Z,7.53
2017-06-24T19:22:08.181Z,4.95
2017-06-24T19:24:37.594Z,3.00
2017-06-24T19:27:05.541Z,4.43
2017-06-24T19:29:35.495Z,2.97
2017-06-24T19:32:03.853Z,2.90
2017-06-24T19:34:32.749Z,3.92
2017-06-24T19:37:00.428Z,3.17
2017-06-24T19:39:28.980Z,2.97
2017-06-24T19:41:57.461Z,3.58
2017-06-24T19:44:29.056Z,4.15
2017-06-24T19:46:59.338Z,3.33
2017-06-24T19:49:28.600Z,3.12
2017-06-24T19:51:57.186Z,5.28
2017-06-24T19:54:26.614Z,4.22
2017-06-24T19:56:55.219Z,3.70
2017-06-24T19:59:26.651Z,3.65
2017-06-24T20:01:57.781Z,3.65
2017-06-24T20:04:26.673Z,3.60
2017-06-24T20:06:56.415Z,4.20
2017-06-24T20:09:24.458Z,3.78
2017-06-24T20:11:52.763Z,3.72
2017-06-24T20:14:21.775Z,4.40
2017-06-24T20:16:51.591Z,4.45
2017-06-24T20:19:19.178Z,4.10
2017-06-24T20:21:49.851Z,4.13
2017-06-24T20:24:22.666Z,3.30
2017-06-24T20:26:50.301Z,3.70
2017-06-24T20:29:18.714Z,3.97
2017-06-24T20:31:46.903Z,4.00
2017-06-24T20:34:16.534Z,4.43
2017-06-24T20:36:44.821Z,4.70
2017-06-24T20:39:17.510Z,5.47
2017-06-24T20:41:46.476Z,5.85
2017-06-24T20:44:16.812Z,10.60
2017-06-24T20:46:46.174Z,6.57
2017-06-24T20:49:15.666Z,6.05
2017-06-24T20:51:45.075Z,5.28
2017-06-24T20:54:15.090Z,5.57
2017-06-24T20:56:44.186Z,4.82
2017-06-24T20:59:11.840Z,3.95
2017-06-24T21:01:40.211Z,4.00
2017-06-24T21:04:09.417Z,3.75
2017-06-24T21:06:38.479Z,4.75
2017-06-24T21:09:06.602Z,3.62
2017-06-24T21:11:34.489Z,5.57
2017-06-24T21:14:02.198Z,4.62
2017-06-24T21:16:29.951Z,6.43
2017-06-24T21:18:57.577Z,6.53
2017-06-24T21:21:26.067Z,5.60
2017-06-24T21:23:57.425Z,5.45
2017-06-24T21:26:25.681Z,6.78
2017-06-24T21:28:53.208Z,5.40
2017-06-24T21:31:21.333Z,4.90
2017-06-24T21:33:50.839Z,5.65
2017-06-24T21:36:18.457Z,5.10
2017-06-24T21:38:45.977Z,4.75
2017-06-24T21:41:13.472Z,4.25
2017-06-24T21:43:41.005Z,4.40
2017-06-24T21:46:08.893Z,4.65
2017-06-24T21:48:36.428Z,6.25
2017-06-24T21:51:03.945Z,4.57
2017-06-24T21:53:31.447Z,4.55
2017-06-24T21:55:59.288Z,5.47
2017-06-24T21:58:27.535Z,4.80
2017-06-24T22:00:55.269Z,6.90
2017-06-24T22:03:24.243Z,8.98
2017-06-24T22:05:51.766Z,5.70
2017-06-24T22:08:19.265Z,5.32
2017-06-24T22:10:46.796Z,5.95
2017-06-24T22:13:14.784Z,5.00
2017-06-24T22:15:42.328Z,4.40
2017-06-24T22:18:10.592Z,5.87
2017-06-24T22:20:38.194Z,6.10
2017-06-24T22:23:06.098Z,5.37
2017-06-24T22:25:35.113Z,5.70
2017-06-24T22:28:02.636Z,6.15
2017-06-24T22:30:30.144Z,5.55
2017-06-24T22:32:57.911Z,5.78
2017-06-24T22:35:25.416Z,4.95
2017-06-24T22:37:53.177Z,5.55
2017-06-24T22:40:21.021Z,5.03
2017-06-24T22:42:49.161Z,5.68
2017-06-24T22:45:17.198Z,5.17
2017-06-24T22:47:44.861Z,5.22
2017-06-24T22:50:12.983Z,4.80
2017-06-24T22:52:41.470Z,5.90
2017-06-24T22:55:09.297Z,5.53
2017-06-24T22:57:37.104Z,6.18
2017-06-24T23:00:06.042Z,6.35
2017-06-24T23:02:34.288Z,6.10
2017-06-24T23:05:02.162Z,5.97
2017-06-24T23:07:31.096Z,6.45
2017-06-24T23:10:00.021Z,5.90
2017-06-24T23:12:27.810Z,6.75
2017-06-24T23:14:56.426Z,7.05
2017-06-24T23:17:24.240Z,6.22
2017-06-24T23:19:52.579Z,7.03
2017-06-24T23:22:21.549Z,8.10
2017-06-24T23:24:49.311Z,7.97
2017-06-24T23:27:17.495Z,7.00
2017-06-24T23:29:46.089Z,6.90
2017-06-24T23:32:13.750Z,6.47
2017-06-24T23:34:43.041Z,6.82
2017-06-24T23:37:11.425Z,6.57
2017-06-24T23:39:40.186Z,6.32
2017-06-24T23:42:08.899Z,7.15
2017-06-24T23:44:36.973Z,7.25
2017-06-24T23:47:05.205Z,7.00
2017-06-24T23:49:33.303Z,6.50
2017-06-24T23:52:02.425Z,6.30
2017-06-24T23:54:30.604Z,7.40
2017-06-24T23:56:58.133Z,7.85
2017-06-24T23:59:25.649Z,7.10
